sensor_id;sensor_type;location;lat;lon;timestamp;P1;durP1;ratioP1;P2;durP2;ratioP2
39078;SDS011;24829;49.208;12.080;2023-02-10T00:01:27;84.85;;;38.00;;
39078;SDS011;24829;49.208;12.080;2023-02-10T00:03:54;90.43;;;39.47;;
39078;SDS011;24829;49.208;12.080;2023-02-10T00:06:20;82.60;;;38.08;;
39078;SDS011;24829;49.208;12.080;2023-02-10T00:08:53;91.82;;;37.42;;
39078;SDS011;24829;49.208;12.080;2023-02-10T00:11:20;84.20;;;36.70;;
39078;SDS011;24829;49.208;12.080;2023-02-10T00:14:05;87.03;;;36.92;;
39078;SDS011;24829;49.208;12.080;2023-02-10T00:16:31;88.55;;;37.28;;
39078;SDS011;24829;49.208;12.080;2023-02-10T00:18:57;83.72;;;35.63;;
39078;SDS011;24829;49.208;12.080;2023-02-10T00:21:22;80.57;;;36.58;;
39078;SDS011;24829;49.208;12.080;2023-02-10T00:23:48;83.07;;;38.30;;
39078;SDS011;24829;49.208;12.080;2023-02-10T00:26:13;79.38;;;35.45;;
39078;SDS011;24829;49.208;12.080;2023-02-10T00:28:39;82.00;;;35.45;;
39078;SDS011;24829;49.208;12.080;2023-02-10T00:31:10;81.35;;;36.83;;
39078;SDS011;24829;49.208;12.080;2023-02-10T00:33:43;84.43;;;36.35;;
39078;SDS011;24829;49.208;12.080;2023-02-10T00:36:11;84.05;;;35.88;;
39078;SDS011;24829;49.208;12.080;2023-02-10T00:38:38;80.93;;;35.72;;
39078;SDS011;24829;49.208;12.080;2023-02-10T00:41:08;78.70;;;36.00;;
39078;SDS011;24829;49.208;12.080;2023-02-10T00:43:39;84.03;;;35.17;;
39078;SDS011;24829;49.208;12.080;2023-02-10T00:46:05;80.68;;;35.03;;
39078;SDS011;24829;49.208;12.080;2023-02-10T00:48:31;81.45;;;36.28;;
39078;SDS011;24829;49.208;12.080;2023-02-10T00:50:57;85.75;;;37.10;;
39078;SDS011;24829;49.208;12.080;2023-02-10T00:53:23;84.57;;;36.58;;
39078;SDS011;24829;49.208;12.080;2023-02-10T00:55:49;95.90;;;40.67;;
39078;SDS011;24829;49.208;12.080;2023-02-10T00:58:14;91.50;;;39.40;;
39078;SDS011;24829;49.208;12.080;2023-02-10T01:00:40;94.43;;;39.58;;
39078;SDS011;24829;49.208;12.080;2023-02-10T01:03:05;83.50;;;40.10;;
39078;SDS011;24829;49.208;12.080;2023-02-10T01:05:31;83.82;;;36.35;;
39078;SDS011;24829;49.208;12.080;2023-02-10T01:07:56;88.20;;;36.58;;
39078;SDS011;24829;49.208;12.080;2023-02-10T01:10:22;86.53;;;39.42;;
39078;SDS011;24829;49.208;12.080;2023-02-10T01:12:49;81.03;;;36.15;;
39078;SDS011;24829;49.208;12.080;2023-02-10T01:15:14;89.22;;;39.53;;
39078;SDS011;24829;49.208;12.080;2023-02-10T01:17:40;84.55;;;36.35;;
39078;SDS011;24829;49.208;12.080;2023-02-10T01:20:06;80.55;;;36.67;;
39078;SDS011;24829;49.208;12.080;2023-02-10T01:22:32;73.93;;;35.33;;
39078;SDS011;24829;49.208;12.080;2023-02-10T01:24:58;86.35;;;34.80;;
39078;SDS011;24829;49.208;12.080;2023-02-10T01:27:24;77.10;;;34.78;;
39078;SDS011;24829;49.208;12.080;2023-02-10T01:29:49;83.22;;;37.78;;
39078;SDS011;24829;49.208;12.080;2023-02-10T01:32:15;76.45;;;33.42;;
39078;SDS011;24829;49.208;12.080;2023-02-10T01:34:40;77.13;;;36.33;;
39078;SDS011;24829;49.208;12.080;2023-02-10T01:37:06;75.30;;;35.80;;
39078;SDS011;24829;49.208;12.080;2023-02-10T01:39:31;82.22;;;36.47;;
39078;SDS011;24829;49.208;12.080;2023-02-10T01:41:57;82.88;;;38.03;;
39078;SDS011;24829;49.208;12.080;2023-02-10T01:46:51;85.07;;;38.25;;
39078;SDS011;24829;49.208;12.080;2023-02-10T01:49:19;78.00;;;35.92;;
39078;SDS011;24829;49.208;12.080;2023-02-10T01:51:58;81.20;;;38.45;;
39078;SDS011;24829;49.208;12.080;2023-02-10T01:54:46;77.32;;;37.20;;
39078;SDS011;24829;49.208;12.080;2023-02-10T01:57:24;81.18;;;35.20;;
39078;SDS011;24829;49.208;12.080;2023-02-10T01:59:50;82.38;;;36.67;;
39078;SDS011;24829;49.208;12.080;2023-02-10T02:02:16;84.88;;;36.15;;
39078;SDS011;24829;49.208;12.080;2023-02-10T02:04:47;91.10;;;37.92;;
39078;SDS011;24829;49.208;12.080;2023-02-10T02:07:24;83.88;;;38.08;;
39078;SDS011;24829;49.208;12.080;2023-02-10T02:09:52;84.32;;;35.92;;
39078;SDS011;24829;49.208;12.080;2023-02-10T02:12:36;95.38;;;38.42;;
39078;SDS011;24829;49.208;12.080;2023-02-10T02:26:26;85.15;;;34.50;;
39078;SDS011;24829;49.208;12.080;2023-02-10T02:36:47;80.18;;;31.90;;
39078;SDS011;24829;49.208;12.080;2023-02-10T02:39:17;79.85;;;35.95;;
39078;SDS011;24829;49.208;12.080;2023-02-10T02:41:43;84.82;;;33.65;;
39078;SDS011;24829;49.208;12.080;2023-02-10T02:44:09;75.13;;;34.22;;
39078;SDS011;24829;49.208;12.080;2023-02-10T02:49:47;67.28;;;31.08;;
39078;SDS011;24829;49.208;12.080;2023-02-10T03:01:02;71.07;;;31.48;;
39078;SDS011;24829;49.208;12.080;2023-02-10T03:03:32;75.47;;;33.53;;
39078;SDS011;24829;49.208;12.080;2023-02-10T03:05:59;79.60;;;34.45;;
39078;SDS011;24829;49.208;12.080;2023-02-10T03:08:25;73.68;;;32.30;;
39078;SDS011;24829;49.208;12.080;2023-02-10T03:10:51;82.15;;;35.70;;
39078;SDS011;24829;49.208;12.080;2023-02-10T03:13:17;75.30;;;33.72;;
39078;SDS011;24829;49.208;12.080;2023-02-10T03:15:42;83.90;;;36.70;;
39078;SDS011;24829;49.208;12.080;2023-02-10T03:18:08;75.35;;;33.38;;
39078;SDS011;24829;49.208;12.080;2023-02-10T03:20:34;90.53;;;38.75;;
39078;SDS011;24829;49.208;12.080;2023-02-10T03:22:59;87.93;;;35.72;;
39078;SDS011;24829;49.208;12.080;2023-02-10T03:25:25;74.07;;;34.03;;
39078;SDS011;24829;49.208;12.080;2023-02-10T03:27:50;77.75;;;33.78;;
39078;SDS011;24829;49.208;12.080;2023-02-10T03:30:16;75.30;;;33.10;;
39078;SDS011;24829;49.208;12.080;2023-02-10T03:32:41;83.07;;;35.00;;
39078;SDS011;24829;49.208;12.080;2023-02-10T03:35:07;77.53;;;32.92;;
39078;SDS011;24829;49.208;12.080;2023-02-10T03:37:32;81.05;;;35.92;;
39078;SDS011;24829;49.208;12.080;2023-02-10T03:39:58;88.45;;;35.83;;
39078;SDS011;24829;49.208;12.080;2023-02-10T03:42:23;83.70;;;35.35;;
39078;SDS011;24829;49.208;12.080;2023-02-10T03:44:49;78.20;;;34.55;;
39078;SDS011;24829;49.208;12.080;2023-02-10T03:47:14;78.63;;;33.25;;
39078;SDS011;24829;49.208;12.080;2023-02-10T03:49:40;75.63;;;33.15;;
39078;SDS011;24829;49.208;12.080;2023-02-10T03:52:06;76.43;;;34.67;;
39078;SDS011;24829;49.208;12.080;2023-02-10T03:54:31;81.35;;;34.78;;
39078;SDS011;24829;49.208;12.080;2023-02-10T03:56:57;82.80;;;33.22;;
39078;SDS011;24829;49.208;12.080;2023-02-10T03:59:22;81.10;;;33.70;;
39078;SDS011;24829;49.208;12.080;2023-02-10T04:01:48;75.88;;;31.73;;
39078;SDS011;24829;49.208;12.080;2023-02-10T04:04:14;77.00;;;34.40;;
39078;SDS011;24829;49.208;12.080;2023-02-10T04:06:39;78.80;;;31.95;;
39078;SDS011;24829;49.208;12.080;2023-02-10T04:09:05;79.78;;;34.97;;
39078;SDS011;24829;49.208;12.080;2023-02-10T04:11:30;76.13;;;32.75;;
39078;SDS011;24829;49.208;12.080;2023-02-10T04:13:56;71.72;;;32.28;;
39078;SDS011;24829;49.208;12.080;2023-02-10T04:16:22;89.00;;;34.35;;
39078;SDS011;24829;49.208;12.080;2023-02-10T04:18:52;81.90;;;33.72;;
39078;SDS011;24829;49.208;12.080;2023-02-10T04:21:18;80.32;;;32.90;;
39078;SDS011;24829;49.208;12.080;2023-02-10T04:23:43;78.88;;;31.88;;
39078;SDS011;24829;49.208;12.080;2023-02-10T04:26:09;74.47;;;33.85;;
39078;SDS011;24829;49.208;12.080;2023-02-10T04:28:34;81.95;;;35.58;;
39078;SDS011;24829;49.208;12.080;2023-02-10T04:31:00;76.70;;;32.78;;
39078;SDS011;24829;49.208;12.080;2023-02-10T04:33:26;93.18;;;37.63;;
39078;SDS011;24829;49.208;12.080;2023-02-10T04:35:53;78.85;;;34.30;;
39078;SDS011;24829;49.208;12.080;2023-02-10T04:38:20;82.55;;;36.13;;
39078;SDS011;24829;49.208;12.080;2023-02-10T04:40:46;95.00;;;37.25;;
39078;SDS011;24829;49.208;12.080;2023-02-10T04:43:12;78.30;;;36.00;;
39078;SDS011;24829;49.208;12.080;2023-02-10T04:45:38;80.72;;;33.30;;
39078;SDS011;24829;49.208;12.080;2023-02-10T04:48:04;87.90;;;37.40;;
39078;SDS011;24829;49.208;12.080;2023-02-10T04:50:30;89.28;;;37.13;;
39078;SDS011;24829;49.208;12.080;2023-02-10T04:52:57;87.05;;;35.22;;
39078;SDS011;24829;49.208;12.080;2023-02-10T04:55:22;85.53;;;35.75;;
39078;SDS011;24829;49.208;12.080;2023-02-10T04:57:48;84.13;;;35.33;;
39078;SDS011;24829;49.208;12.080;2023-02-10T05:00:13;85.20;;;37.30;;
39078;SDS011;24829;49.208;12.080;2023-02-10T05:02:39;81.75;;;36.50;;
39078;SDS011;24829;49.208;12.080;2023-02-10T05:05:05;86.32;;;36.95;;
39078;SDS011;24829;49.208;12.080;2023-02-10T05:07:31;79.40;;;36.05;;
39078;SDS011;24829;49.208;12.080;2023-02-10T05:09:57;88.85;;;39.03;;
39078;SDS011;24829;49.208;12.080;2023-02-10T05:12:22;85.97;;;37.03;;
39078;SDS011;24829;49.208;12.080;2023-02-10T05:14:48;81.93;;;35.78;;
39078;SDS011;24829;49.208;12.080;2023-02-10T05:17:14;89.43;;;36.10;;
39078;SDS011;24829;49.208;12.080;2023-02-10T05:19:39;80.38;;;33.80;;
39078;SDS011;24829;49.208;12.080;2023-02-10T05:22:05;82.57;;;36.03;;
39078;SDS011;24829;49.208;12.080;2023-02-10T05:24:30;88.68;;;37.22;;
39078;SDS011;24829;49.208;12.080;2023-02-10T05:26:56;90.40;;;38.60;;
39078;SDS011;24829;49.208;12.080;2023-02-10T05:29:21;94.28;;;38.88;;
39078;SDS011;24829;49.208;12.080;2023-02-10T05:31:47;90.35;;;37.47;;
39078;SDS011;24829;49.208;12.080;2023-02-10T05:34:12;84.35;;;34.97;;
39078;SDS011;24829;49.208;12.080;2023-02-10T05:36:38;91.05;;;39.35;;
39078;SDS011;24829;49.208;12.080;2023-02-10T05:39:03;84.85;;;35.47;;
39078;SDS011;24829;49.208;12.080;2023-02-10T05:41:48;84.75;;;36.78;;
39078;SDS011;24829;49.208;12.080;2023-02-10T05:44:14;84.70;;;35.55;;
39078;SDS011;24829;49.208;12.080;2023-02-10T05:46:39;82.00;;;36.00;;
39078;SDS011;24829;49.208;12.080;2023-02-10T05:49:05;85.30;;;37.67;;
39078;SDS011;24829;49.208;12.080;2023-02-10T05:51:30;94.50;;;37.63;;
39078;SDS011;24829;49.208;12.080;2023-02-10T05:53:56;87.00;;;36.22;;
39078;SDS011;24829;49.208;12.080;2023-02-10T05:56:22;86.68;;;35.20;;
39078;SDS011;24829;49.208;12.080;2023-02-10T05:58:47;87.07;;;37.22;;
39078;SDS011;24829;49.208;12.080;2023-02-10T06:01:13;88.32;;;36.88;;
39078;SDS011;24829;49.208;12.080;2023-02-10T06:03:38;79.78;;;35.58;;
39078;SDS011;24829;49.208;12.080;2023-02-10T06:06:04;88.82;;;35.53;;
39078;SDS011;24829;49.208;12.080;2023-02-10T06:08:30;89.78;;;37.17;;
39078;SDS011;24829;49.208;12.080;2023-02-10T06:10:55;89.80;;;38.03;;
39078;SDS011;24829;49.208;12.080;2023-02-10T06:13:21;86.05;;;34.28;;
39078;SDS011;24829;49.208;12.080;2023-02-10T06:15:46;84.15;;;36.28;;
39078;SDS011;24829;49.208;12.080;2023-02-10T06:18:12;102.35;;;38.08;;
39078;SDS011;24829;49.208;12.080;2023-02-10T06:20:38;95.70;;;36.83;;
39078;SDS011;24829;49.208;12.080;2023-02-10T06:23:03;94.40;;;37.22;;
39078;SDS011;24829;49.208;12.080;2023-02-10T06:25:29;101.30;;;39.85;;
39078;SDS011;24829;49.208;12.080;2023-02-10T06:27:54;92.63;;;38.10;;
39078;SDS011;24829;49.208;12.080;2023-02-10T06:30:20;101.43;;;42.42;;
39078;SDS011;24829;49.208;12.080;2023-02-10T06:32:46;100.68;;;40.70;;
39078;SDS011;24829;49.208;12.080;2023-02-10T06:35:11;95.75;;;41.40;;
39078;SDS011;24829;49.208;12.080;2023-02-10T06:37:37;102.32;;;40.78;;
39078;SDS011;24829;49.208;12.080;2023-02-10T06:40:03;94.88;;;41.72;;
39078;SDS011;24829;49.208;12.080;2023-02-10T06:42:29;99.95;;;40.72;;
39078;SDS011;24829;49.208;12.080;2023-02-10T06:44:55;96.93;;;41.70;;
39078;SDS011;24829;49.208;12.080;2023-02-10T06:47:21;97.57;;;38.92;;
39078;SDS011;24829;49.208;12.080;2023-02-10T06:49:47;100.00;;;40.85;;
39078;SDS011;24829;49.208;12.080;2023-02-10T06:52:12;132.98;;;55.38;;
39078;SDS011;24829;49.208;12.080;2023-02-10T06:54:38;160.52;;;74.15;;
39078;SDS011;24829;49.208;12.080;2023-02-10T06:57:03;128.85;;;55.38;;
39078;SDS011;24829;49.208;12.080;2023-02-10T06:59:29;100.65;;;41.13;;
39078;SDS011;24829;49.208;12.080;2023-02-10T07:01:54;89.68;;;39.50;;
39078;SDS011;24829;49.208;12.080;2023-02-10T07:04:25;96.55;;;39.22;;
39078;SDS011;24829;49.208;12.080;2023-02-10T07:06:52;99.15;;;41.60;;
39078;SDS011;24829;49.208;12.080;2023-02-10T07:09:17;95.13;;;38.15;;
39078;SDS011;24829;49.208;12.080;2023-02-10T07:11:43;96.68;;;38.78;;
39078;SDS011;24829;49.208;12.080;2023-02-10T07:14:08;88.05;;;36.47;;
39078;SDS011;24829;49.208;12.080;2023-02-10T07:16:34;92.13;;;40.78;;
39078;SDS011;24829;49.208;12.080;2023-02-10T07:18:59;88.30;;;37.20;;
39078;SDS011;24829;49.208;12.080;2023-02-10T07:21:25;89.85;;;39.80;;
39078;SDS011;24829;49.208;12.080;2023-02-10T07:23:50;84.60;;;37.17;;
39078;SDS011;24829;49.208;12.080;2023-02-10T07:26:16;90.45;;;38.40;;
39078;SDS011;24829;49.208;12.080;2023-02-10T07:28:44;86.45;;;39.45;;
39078;SDS011;24829;49.208;12.080;2023-02-10T07:31:10;89.28;;;38.47;;
39078;SDS011;24829;49.208;12.080;2023-02-10T07:33:36;91.90;;;40.42;;
39078;SDS011;24829;49.208;12.080;2023-02-10T07:36:02;82.70;;;37.30;;
39078;SDS011;24829;49.208;12.080;2023-02-10T07:38:30;87.07;;;38.15;;
39078;SDS011;24829;49.208;12.080;2023-02-10T07:40:56;83.93;;;36.88;;
39078;SDS011;24829;49.208;12.080;2023-02-10T07:43:21;88.78;;;37.00;;
39078;SDS011;24829;49.208;12.080;2023-02-10T07:45:47;90.82;;;38.58;;
39078;SDS011;24829;49.208;12.080;2023-02-10T07:48:15;95.57;;;40.75;;
39078;SDS011;24829;49.208;12.080;2023-02-10T07:50:41;106.00;;;44.25;;
39078;SDS011;24829;49.208;12.080;2023-02-10T07:53:07;97.07;;;42.25;;
39078;SDS011;24829;49.208;12.080;2023-02-10T07:55:32;97.32;;;42.40;;
39078;SDS011;24829;49.208;12.080;2023-02-10T07:57:58;89.90;;;40.65;;
39078;SDS011;24829;49.208;12.080;2023-02-10T08:00:23;91.00;;;40.80;;
39078;SDS011;24829;49.208;12.080;2023-02-10T08:02:49;96.95;;;41.92;;
39078;SDS011;24829;49.208;12.080;2023-02-10T08:05:14;94.28;;;40.75;;
39078;SDS011;24829;49.208;12.080;2023-02-10T08:07:40;102.10;;;45.08;;
39078;SDS011;24829;49.208;12.080;2023-02-10T08:10:06;106.18;;;48.97;;
39078;SDS011;24829;49.208;12.080;2023-02-10T08:12:32;100.88;;;47.25;;
39078;SDS011;24829;49.208;12.080;2023-02-10T08:14:57;98.97;;;43.85;;
39078;SDS011;24829;49.208;12.080;2023-02-10T08:17:23;96.28;;;42.67;;
39078;SDS011;24829;49.208;12.080;2023-02-10T08:19:49;86.72;;;38.78;;
39078;SDS011;24829;49.208;12.080;2023-02-10T08:22:14;91.78;;;42.53;;
39078;SDS011;24829;49.208;12.080;2023-02-10T08:24:40;93.43;;;41.72;;
39078;SDS011;24829;49.208;12.080;2023-02-10T08:27:05;93.82;;;40.50;;
39078;SDS011;24829;49.208;12.080;2023-02-10T08:29:31;91.07;;;38.58;;
39078;SDS011;24829;49.208;12.080;2023-02-10T08:31:57;93.15;;;40.55;;
39078;SDS011;24829;49.208;12.080;2023-02-10T08:34:22;95.32;;;42.92;;
39078;SDS011;24829;49.208;12.080;2023-02-10T08:36:48;95.60;;;41.25;;
39078;SDS011;24829;49.208;12.080;2023-02-10T08:39:14;88.43;;;41.88;;
39078;SDS011;24829;49.208;12.080;2023-02-10T08:41:40;88.82;;;41.80;;
39078;SDS011;24829;49.208;12.080;2023-02-10T08:44:06;88.65;;;39.58;;
39078;SDS011;24829;49.208;12.080;2023-02-10T08:46:33;98.93;;;42.45;;
39078;SDS011;24829;49.208;12.080;2023-02-10T08:48:59;93.40;;;41.15;;
39078;SDS011;24829;49.208;12.080;2023-02-10T08:51:26;85.88;;;39.42;;
39078;SDS011;24829;49.208;12.080;2023-02-10T08:53:52;95.38;;;42.50;;
39078;SDS011;24829;49.208;12.080;2023-02-10T08:56:17;89.82;;;40.45;;
39078;SDS011;24829;49.208;12.080;2023-02-10T08:58:44;90.95;;;41.38;;
39078;SDS011;24829;49.208;12.080;2023-02-10T09:01:14;98.75;;;42.40;;
39078;SDS011;24829;49.208;12.080;2023-02-10T09:03:42;91.43;;;40.90;;
39078;SDS011;24829;49.208;12.080;2023-02-10T09:06:18;90.90;;;44.38;;
39078;SDS011;24829;49.208;12.080;2023-02-10T09:08:49;95.93;;;42.83;;
39078;SDS011;24829;49.208;12.080;2023-02-10T09:11:17;93.95;;;40.63;;
39078;SDS011;24829;49.208;12.080;2023-02-10T09:13:43;86.85;;;41.58;;
39078;SDS011;24829;49.208;12.080;2023-02-10T09:16:09;85.20;;;41.50;;
39078;SDS011;24829;49.208;12.080;2023-02-10T09:18:35;94.28;;;43.33;;
39078;SDS011;24829;49.208;12.080;2023-02-10T09:21:00;98.88;;;41.72;;
39078;SDS011;24829;49.208;12.080;2023-02-10T09:23:27;96.65;;;44.35;;
39078;SDS011;24829;49.208;12.080;2023-02-10T09:25:53;92.43;;;42.13;;
39078;SDS011;24829;49.208;12.080;2023-02-10T09:28:20;85.10;;;41.17;;
39078;SDS011;24829;49.208;12.080;2023-02-10T09:30:46;94.05;;;42.65;;
39078;SDS011;24829;49.208;12.080;2023-02-10T09:33:12;92.38;;;41.55;;
39078;SDS011;24829;49.208;12.080;2023-02-10T09:35:37;91.28;;;41.47;;
39078;SDS011;24829;49.208;12.080;2023-02-10T09:38:03;85.82;;;42.40;;
39078;SDS011;24829;49.208;12.080;2023-02-10T09:40:30;97.35;;;43.88;;
39078;SDS011;24829;49.208;12.080;2023-02-10T09:43:11;81.82;;;40.08;;
39078;SDS011;24829;49.208;12.080;2023-02-10T09:45:51;87.53;;;39.50;;
39078;SDS011;24829;49.208;12.080;2023-02-10T09:48:28;91.30;;;41.92;;
39078;SDS011;24829;49.208;12.080;2023-02-10T09:51:11;85.10;;;44.80;;
39078;SDS011;24829;49.208;12.080;2023-02-10T09:56:23;82.30;;;38.75;;
39078;SDS011;24829;49.208;12.080;2023-02-10T09:58:51;87.60;;;42.25;;
39078;SDS011;24829;49.208;12.080;2023-02-10T10:03:58;90.68;;;41.75;;
39078;SDS011;24829;49.208;12.080;2023-02-10T10:06:34;85.78;;;42.03;;
39078;SDS011;24829;49.208;12.080;2023-02-10T10:14:18;87.43;;;43.40;;
39078;SDS011;24829;49.208;12.080;2023-02-10T10:16:58;90.63;;;44.15;;
39078;SDS011;24829;49.208;12.080;2023-02-10T10:22:03;79.78;;;38.85;;
39078;SDS011;24829;49.208;12.080;2023-02-10T10:30:36;83.95;;;40.53;;
39078;SDS011;24829;49.208;12.080;2023-02-10T10:36:16;76.55;;;37.38;;
39078;SDS011;24829;49.208;12.080;2023-02-10T10:38:47;90.47;;;43.17;;
39078;SDS011;24829;49.208;12.080;2023-02-10T10:41:23;83.00;;;39.95;;
39078;SDS011;24829;49.208;12.080;2023-02-10T10:43:52;78.35;;;39.83;;
39078;SDS011;24829;49.208;12.080;2023-02-10T10:49:04;87.95;;;40.60;;
39078;SDS011;24829;49.208;12.080;2023-02-10T10:51:30;75.25;;;40.75;;
39078;SDS011;24829;49.208;12.080;2023-02-10T10:53:56;83.28;;;41.60;;
39078;SDS011;24829;49.208;12.080;2023-02-10T10:56:26;78.18;;;38.20;;
39078;SDS011;24829;49.208;12.080;2023-02-10T10:59:14;82.88;;;39.38;;
39078;SDS011;24829;49.208;12.080;2023-02-10T11:01:51;83.45;;;38.95;;
39078;SDS011;24829;49.208;12.080;2023-02-10T11:06:53;78.60;;;39.20;;
39078;SDS011;24829;49.208;12.080;2023-02-10T11:09:40;74.50;;;37.28;;
39078;SDS011;24829;49.208;12.080;2023-02-10T11:14:57;74.80;;;38.60;;
39078;SDS011;24829;49.208;12.080;2023-02-10T11:17:24;77.78;;;38.42;;
39078;SDS011;24829;49.208;12.080;2023-02-10T11:20:01;70.68;;;37.65;;
39078;SDS011;24829;49.208;12.080;2023-02-10T11:22:37;77.40;;;39.63;;
39078;SDS011;24829;49.208;12.080;2023-02-10T11:25:20;83.43;;;40.42;;
39078;SDS011;24829;49.208;12.080;2023-02-10T11:27:50;72.68;;;37.28;;
39078;SDS011;24829;49.208;12.080;2023-02-10T11:30:29;71.88;;;37.25;;
39078;SDS011;24829;49.208;12.080;2023-02-10T11:32:56;74.20;;;36.85;;
39078;SDS011;24829;49.208;12.080;2023-02-10T11:35:23;76.30;;;39.53;;
39078;SDS011;24829;49.208;12.080;2023-02-10T11:37:53;73.43;;;36.78;;
39078;SDS011;24829;49.208;12.080;2023-02-10T11:40:25;76.38;;;36.72;;
39078;SDS011;24829;49.208;12.080;2023-02-10T11:42:57;76.00;;;40.03;;
39078;SDS011;24829;49.208;12.080;2023-02-10T11:45:25;70.13;;;37.47;;
39078;SDS011;24829;49.208;12.080;2023-02-10T11:48:16;74.55;;;37.83;;
39078;SDS011;24829;49.208;12.080;2023-02-10T11:50:41;73.95;;;37.78;;
39078;SDS011;24829;49.208;12.080;2023-02-10T11:53:12;75.88;;;37.92;;
39078;SDS011;24829;49.208;12.080;2023-02-10T11:55:52;73.32;;;37.60;;
39078;SDS011;24829;49.208;12.080;2023-02-10T12:01:33;76.70;;;37.13;;
39078;SDS011;24829;49.208;12.080;2023-02-10T12:07:25;70.68;;;35.25;;
39078;SDS011;24829;49.208;12.080;2023-02-10T12:10:17;76.25;;;36.55;;
39078;SDS011;24829;49.208;12.080;2023-02-10T12:13:00;79.88;;;38.38;;
39078;SDS011;24829;49.208;12.080;2023-02-10T12:15:35;70.90;;;37.88;;
39078;SDS011;24829;49.208;12.080;2023-02-10T12:29:24;68.50;;;34.70;;
39078;SDS011;24829;49.208;12.080;2023-02-10T12:34:36;74.18;;;37.17;;
39078;SDS011;24829;49.208;12.080;2023-02-10T12:40:14;78.30;;;40.22;;
39078;SDS011;24829;49.208;12.080;2023-02-10T12:45:51;70.82;;;36.88;;
39078;SDS011;24829;49.208;12.080;2023-02-10T12:48:37;79.55;;;40.03;;
39078;SDS011;24829;49.208;12.080;2023-02-10T12:51:14;64.13;;;35.92;;
39078;SDS011;24829;49.208;12.080;2023-02-10T12:54:09;73.43;;;36.72;;
39078;SDS011;24829;49.208;12.080;2023-02-10T12:56:54;68.63;;;35.33;;
39078;SDS011;24829;49.208;12.080;2023-02-10T12:59:24;65.70;;;36.72;;
39078;SDS011;24829;49.208;12.080;2023-02-10T13:02:00;71.43;;;36.72;;
39078;SDS011;24829;49.208;12.080;2023-02-10T13:04:36;72.05;;;40.88;;
39078;SDS011;24829;49.208;12.080;2023-02-10T13:07:30;67.47;;;35.72;;
39078;SDS011;24829;49.208;12.080;2023-02-10T13:09:58;79.93;;;39.45;;
39078;SDS011;24829;49.208;12.080;2023-02-10T13:12:39;74.60;;;37.33;;
39078;SDS011;24829;49.208;12.080;2023-02-10T13:17:47;73.15;;;37.10;;
39078;SDS011;24829;49.208;12.080;2023-02-10T13:23:01;67.57;;;34.25;;
39078;SDS011;24829;49.208;12.080;2023-02-10T13:30:44;77.72;;;39.90;;
39078;SDS011;24829;49.208;12.080;2023-02-10T13:36:29;68.28;;;34.63;;
39078;SDS011;24829;49.208;12.080;2023-02-10T13:39:16;69.70;;;35.72;;
39078;SDS011;24829;49.208;12.080;2023-02-10T13:41:46;66.85;;;34.60;;
39078;SDS011;24829;49.208;12.080;2023-02-10T13:44:20;69.20;;;36.90;;
39078;SDS011;24829;49.208;12.080;2023-02-10T13:46:55;67.35;;;37.08;;
39078;SDS011;24829;49.208;12.080;2023-02-10T13:49:58;70.93;;;36.28;;
39078;SDS011;24829;49.208;12.080;2023-02-10T13:52:55;72.57;;;37.45;;
39078;SDS011;24829;49.208;12.080;2023-02-10T14:00:42;59.85;;;32.30;;
39078;SDS011;24829;49.208;12.080;2023-02-10T14:05:35;67.75;;;35.13;;
39078;SDS011;24829;49.208;12.080;2023-02-10T14:08:24;67.18;;;34.65;;
39078;SDS011;24829;49.208;12.080;2023-02-10T14:10:57;67.57;;;32.92;;
39078;SDS011;24829;49.208;12.080;2023-02-10T14:13:26;64.25;;;32.92;;
39078;SDS011;24829;49.208;12.080;2023-02-10T14:15:56;62.33;;;33.95;;
39078;SDS011;24829;49.208;12.080;2023-02-10T14:18:32;61.45;;;31.27;;
39078;SDS011;24829;49.208;12.080;2023-02-10T14:21:04;56.97;;;34.08;;
39078;SDS011;24829;49.208;12.080;2023-02-10T14:23:31;68.38;;;35.00;;
39078;SDS011;24829;49.208;12.080;2023-02-10T14:26:05;63.88;;;33.00;;
39078;SDS011;24829;49.208;12.080;2023-02-10T14:28:38;64.28;;;32.28;;
39078;SDS011;24829;49.208;12.080;2023-02-10T14:33:54;62.95;;;34.42;;
39078;SDS011;24829;49.208;12.080;2023-02-10T14:36:21;58.10;;;32.05;;
39078;SDS011;24829;49.208;12.080;2023-02-10T14:38:52;63.30;;;32.85;;
39078;SDS011;24829;49.208;12.080;2023-02-10T14:41:20;57.50;;;31.45;;
39078;SDS011;24829;49.208;12.080;2023-02-10T14:43:47;53.97;;;29.67;;
39078;SDS011;24829;49.208;12.080;2023-02-10T14:46:18;60.50;;;32.42;;
39078;SDS011;24829;49.208;12.080;2023-02-10T14:48:50;62.20;;;31.83;;
39078;SDS011;24829;49.208;12.080;2023-02-10T14:51:25;59.83;;;33.05;;
39078;SDS011;24829;49.208;12.080;2023-02-10T14:53:52;74.45;;;38.17;;
39078;SDS011;24829;49.208;12.080;2023-02-10T14:56:27;71.47;;;38.28;;
39078;SDS011;24829;49.208;12.080;2023-02-10T14:58:53;68.93;;;37.38;;
39078;SDS011;24829;49.208;12.080;2023-02-10T15:03:54;72.35;;;37.42;;
39078;SDS011;24829;49.208;12.080;2023-02-10T15:06:22;69.70;;;38.38;;
39078;SDS011;24829;49.208;12.080;2023-02-10T15:11:22;70.05;;;36.33;;
39078;SDS011;24829;49.208;12.080;2023-02-10T15:14:11;69.53;;;36.67;;
39078;SDS011;24829;49.208;12.080;2023-02-10T15:16:42;68.45;;;35.85;;
39078;SDS011;24829;49.208;12.080;2023-02-10T15:19:12;67.25;;;37.03;;
39078;SDS011;24829;49.208;12.080;2023-02-10T15:21:40;74.28;;;40.47;;
39078;SDS011;24829;49.208;12.080;2023-02-10T15:24:17;65.78;;;35.53;;
39078;SDS011;24829;49.208;12.080;2023-02-10T15:26:48;72.32;;;38.20;;
39078;SDS011;24829;49.208;12.080;2023-02-10T15:29:14;69.28;;;35.88;;
39078;SDS011;24829;49.208;12.080;2023-02-10T15:31:41;76.57;;;39.78;;
39078;SDS011;24829;49.208;12.080;2023-02-10T15:34:24;80.22;;;43.08;;
39078;SDS011;24829;49.208;12.080;2023-02-10T15:36:56;78.63;;;42.33;;
39078;SDS011;24829;49.208;12.080;2023-02-10T15:39:28;85.57;;;47.60;;
39078;SDS011;24829;49.208;12.080;2023-02-10T15:46:46;77.38;;;41.20;;
39078;SDS011;24829;49.208;12.080;2023-02-10T15:49:32;93.47;;;48.53;;
39078;SDS011;24829;49.208;12.080;2023-02-10T15:51:57;81.78;;;44.70;;
39078;SDS011;24829;49.208;12.080;2023-02-10T15:54:24;76.70;;;42.20;;
39078;SDS011;24829;49.208;12.080;2023-02-10T15:57:04;79.15;;;40.65;;
39078;SDS011;24829;49.208;12.080;2023-02-10T15:59:31;77.55;;;40.75;;
39078;SDS011;24829;49.208;12.080;2023-02-10T16:01:59;73.95;;;39.60;;
39078;SDS011;24829;49.208;12.080;2023-02-10T16:04:26;78.90;;;40.80;;
39078;SDS011;24829;49.208;12.080;2023-02-10T16:06:55;78.22;;;41.08;;
39078;SDS011;24829;49.208;12.080;2023-02-10T16:09:25;73.18;;;39.65;;
39078;SDS011;24829;49.208;12.080;2023-02-10T16:11:51;77.05;;;39.17;;
39078;SDS011;24829;49.208;12.080;2023-02-10T16:14:17;73.30;;;39.92;;
39078;SDS011;24829;49.208;12.080;2023-02-10T16:16:47;74.60;;;38.63;;
39078;SDS011;24829;49.208;12.080;2023-02-10T16:19:17;74.43;;;39.95;;
39078;SDS011;24829;49.208;12.080;2023-02-10T16:21:44;78.38;;;41.13;;
39078;SDS011;24829;49.208;12.080;2023-02-10T16:24:19;76.22;;;39.38;;